Time;durP1;ratioP1;P1;durP2;ratioP2;P2;SDS_P1;SDS_P2;PMS_P1;PMS_P2;Temp;Humidity;BMP_temperature;BMP_pressure;BME280_temperature;BME280_humidity;BME280_pressure;Samples;Min_cycle;Max_cycle;Signal;HPM_P1;HPM_P2
2023/02/26 00:00:58;;;;;;;;;;;21.50;60.20;;;;;;1527966;76;1462;-60
2023/02/26 00:03:00;;;;;;;;;;;21.50;60.20;;;;;;1547057;76;680;-61
2023/02/26 00:05:03;;;;;;;;;;;21.50;60.30;;;;;;1527318;77;664;-60
2023/02/26 00:07:05;;;;;;;;;;;21.50;60.40;;;;;;1510194;78;714;-61
2023/02/26 00:09:07;;;;;;;;;;;21.50;60.40;;;;;;1548730;76;676;-60
2023/02/26 00:11:09;;;;;;;;;;;21.50;60.40;;;;;;1549861;75;1177;-60
2023/02/26 00:13:11;;;;;;;;;;;21.50;60.50;;;;;;1529682;77;1625;-60
2023/02/26 00:15:14;;;;;;;;;;;21.50;60.50;;;;;;1527728;77;652;-60
2023/02/26 00:17:23;;;;;;;;;;;21.50;60.40;;;;;;1530947;76;1933;-60
2023/02/26 00:19:25;;;;;;;;;;;21.50;60.20;;;;;;1535873;76;2359;-60
2023/02/26 00:21:27;;;;;;;;;;;21.60;60.10;;;;;;1525249;77;1143;-61
2023/02/26 00:23:29;;;;;;;;;;;21.60;60.10;;;;;;1544145;76;665;-60
2023/02/26 00:25:31;;;;;;;;;;;21.70;60.10;;;;;;1530970;76;644;-60
2023/02/26 00:27:33;;;;;;;;;;;21.60;60.20;;;;;;1526513;76;1559;-60
2023/02/26 00:29:35;;;;;;;;;;;21.70;60.10;;;;;;1539331;75;677;-59
2023/02/26 00:31:37;;;;;;;;;;;21.60;60.10;;;;;;1537640;76;1103;-60
2023/02/26 00:33:39;;;;;;;;;;;21.60;60.10;;;;;;1534240;77;695;-60
2023/02/26 00:35:41;;;;;;;;;;;21.60;60.00;;;;;;1528543;77;729;-60
2023/02/26 00:38:03;;;;;;;;;;;21.70;60.00;;;;;;1543921;76;1921;-61
2023/02/26 00:40:18;;;;;;;;;;;21.70;59.80;;;;;;1558243;75;1776;-60
2023/02/26 00:42:20;;;;;;;;;;;21.70;59.80;;;;;;1541573;76;1884;-59
2023/02/26 00:44:22;;;;;;;;;;;21.70;59.70;;;;;;1544005;76;830;-59
2023/02/26 00:46:37;;;;;;;;;;;21.70;59.70;;;;;;1532438;77;807;-60
2023/02/26 00:48:44;;;;;;;;;;;21.80;59.80;;;;;;1534542;77;705;-60
2023/02/26 00:51:04;;;;;;;;;;;21.70;59.70;;;;;;1525158;76;1134;-60
2023/02/26 00:53:14;;;;;;;;;;;21.60;59.70;;;;;;1502320;78;786;-62
2023/02/26 00:55:15;;;;;;;;;;;21.70;59.80;;;;;;1551190;75;666;-59
2023/02/26 00:57:17;;;;;;;;;;;21.60;60.20;;;;;;1533986;77;1943;-60
2023/02/26 00:59:19;;;;;;;;;;;21.70;60.30;;;;;;1526084;77;665;-61
2023/02/26 01:01:21;;;;;;;;;;;21.60;60.40;;;;;;1523616;77;1153;-61
2023/02/26 01:03:23;;;;;;;;;;;21.60;60.30;;;;;;1530229;77;753;-61
2023/02/26 01:05:25;;;;;;;;;;;21.50;60.30;;;;;;1553358;76;688;-60
2023/02/26 01:07:27;;;;;;;;;;;21.60;60.40;;;;;;1532147;77;681;-61
2023/02/26 01:09:30;;;;;;;;;;;21.60;60.40;;;;;;1531866;76;1335;-60
2023/02/26 01:11:33;;;;;;;;;;;21.50;60.50;;;;;;1553156;75;1160;-61
2023/02/26 01:13:35;;;;;;;;;;;21.50;60.40;;;;;;1524165;77;701;-61
2023/02/26 01:15:37;;;;;;;;;;;21.50;60.70;;;;;;1518828;77;671;-60
2023/02/26 01:17:44;;;;;;;;;;;21.50;60.40;;;;;;1547155;76;1925;-60
2023/02/26 01:19:47;;;;;;;;;;;21.60;60.20;;;;;;1532602;77;734;-61
2023/02/26 01:21:51;;;;;;;;;;;21.70;59.90;;;;;;1509629;77;1881;-61
2023/02/26 01:23:52;;;;;;;;;;;21.80;59.70;;;;;;1553951;75;1544;-61
2023/02/26 01:25:57;;;;;;;;;;;21.80;59.50;;;;;;1530826;77;680;-61
2023/02/26 01:27:59;;;;;;;;;;;21.80;59.50;;;;;;1548923;76;831;-60
2023/02/26 01:30:01;;;;;;;;;;;21.80;59.60;;;;;;1550875;76;600;-61
2023/02/26 01:32:05;;;;;;;;;;;21.70;59.60;;;;;;1526006;77;1124;-60
2023/02/26 01:34:08;;;;;;;;;;;21.80;59.60;;;;;;1553478;76;693;-61
2023/02/26 01:36:12;;;;;;;;;;;21.70;59.50;;;;;;1527202;77;1643;-62
2023/02/26 01:38:31;;;;;;;;;;;21.80;59.40;;;;;;1538854;76;1942;-61
2023/02/26 01:40:37;;;;;;;;;;;21.70;59.40;;;;;;1528732;76;1139;-62
2023/02/26 01:42:39;;;;;;;;;;;21.90;59.30;;;;;;1545819;76;1775;-62
2023/02/26 01:44:57;;;;;;;;;;;21.90;59.30;;;;;;1507118;77;783;-62
2023/02/26 01:47:16;;;;;;;;;;;21.90;59.10;;;;;;1538778;76;974;-61
2023/02/26 01:49:18;;;;;;;;;;;21.80;59.00;;;;;;1537017;76;669;-61
2023/02/26 01:51:21;;;;;;;;;;;21.90;59.10;;;;;;1528082;76;1152;-61
2023/02/26 01:53:25;;;;;;;;;;;21.90;59.00;;;;;;1533917;75;1695;-62
2023/02/26 01:55:26;;;;;;;;;;;22.00;58.90;;;;;;1533145;76;653;-62
2023/02/26 01:57:28;;;;;;;;;;;22.00;58.70;;;;;;1535803;76;1920;-61
2023/02/26 01:59:30;;;;;;;;;;;22.00;58.20;;;;;;1542387;76;687;-62
2023/02/26 02:01:33;;;;;;;;;;;22.00;58.20;;;;;;1553511;75;1270;-61
2023/02/26 02:03:36;;;;;;;;;;;22.10;58.10;;;;;;1526175;77;768;-61
2023/02/26 02:05:43;;;;;;;;;;;22.10;58.10;;;;;;1544552;76;767;-62
2023/02/26 02:07:45;;;;;;;;;;;22.10;58.00;;;;;;1545808;76;673;-62
2023/02/26 02:09:46;;;;;;;;;;;22.10;57.90;;;;;;1542299;76;692;-61
2023/02/26 02:12:05;;;;;;;;;;;22.10;58.00;;;;;;1529479;76;1129;-61
2023/02/26 02:14:24;;;;;;;;;;;22.10;58.10;;;;;;1542187;76;735;-61
2023/02/26 02:16:30;;;;;;;;;;;22.00;58.10;;;;;;1537629;76;1108;-61
2023/02/26 02:18:39;;;;;;;;;;;22.00;58.10;;;;;;1547472;76;1920;-61
2023/02/26 02:20:45;;;;;;;;;;;22.10;58.10;;;;;;1550775;75;1896;-61
2023/02/26 02:23:07;;;;;;;;;;;22.10;57.90;;;;;;1549545;75;708;-61
2023/02/26 02:25:10;;;;;;;;;;;22.10;58.00;;;;;;1554725;75;924;-62
2023/02/26 02:27:14;;;;;;;;;;;22.10;57.90;;;;;;1537376;76;749;-61
2023/02/26 02:29:17;;;;;;;;;;;22.00;57.80;;;;;;1545067;76;1894;-60
2023/02/26 02:31:21;;;;;;;;;;;22.00;58.10;;;;;;1549535;75;1137;-61
2023/02/26 02:33:24;;;;;;;;;;;22.00;58.20;;;;;;1546485;76;687;-61
2023/02/26 02:35:31;;;;;;;;;;;21.90;58.10;;;;;;1527565;76;1655;-61
2023/02/26 02:37:37;;;;;;;;;;;21.90;58.20;;;;;;1523499;77;1941;-61
2023/02/26 02:39:40;;;;;;;;;;;21.90;58.30;;;;;;1550513;75;677;-61
2023/02/26 02:41:43;;;;;;;;;;;22.00;58.60;;;;;;1542403;76;1145;-61
2023/02/26 02:43:45;;;;;;;;;;;21.90;58.30;;;;;;1548396;76;674;-60
2023/02/26 02:45:55;;;;;;;;;;;22.00;58.60;;;;;;1544901;76;670;-61
2023/02/26 02:47:59;;;;;;;;;;;21.90;58.20;;;;;;1551462;76;1590;-62
2023/02/26 02:50:02;;;;;;;;;;;22.00;58.20;;;;;;1521094;77;701;-61
2023/02/26 02:52:09;;;;;;;;;;;22.00;58.20;;;;;;1545276;75;1147;-62
2023/02/26 02:54:19;;;;;;;;;;;22.10;58.10;;;;;;1542256;75;790;-61
2023/02/26 02:56:27;;;;;;;;;;;22.10;57.80;;;;;;1546229;76;780;-63
2023/02/26 02:58:30;;;;;;;;;;;22.10;57.80;;;;;;1543132;76;1921;-61
2023/02/26 03:00:32;;;;;;;;;;;22.10;57.80;;;;;;1530796;77;1173;-61
2023/02/26 03:02:36;;;;;;;;;;;22.10;57.80;;;;;;1545720;76;1619;-60
2023/02/26 03:04:38;;;;;;;;;;;22.10;57.80;;;;;;1539645;76;795;-61
2023/02/26 03:06:40;;;;;;;;;;;22.10;57.80;;;;;;1533050;77;688;-60
2023/02/26 03:08:42;;;;;;;;;;;22.10;57.80;;;;;;1533809;76;677;-60
2023/02/26 03:10:44;;;;;;;;;;;22.10;57.80;;;;;;1528177;76;1116;-60
2023/02/26 03:12:46;;;;;;;;;;;22.10;57.80;;;;;;1530173;77;676;-61
2023/02/26 03:14:47;;;;;;;;;;;22.10;57.80;;;;;;1535988;76;782;-60
2023/02/26 03:17:01;;;;;;;;;;;22.10;58.00;;;;;;1535555;75;1577;-61
2023/02/26 03:19:16;;;;;;;;;;;22.00;58.00;;;;;;1540774;76;1926;-61
2023/02/26 03:21:36;;;;;;;;;;;21.90;58.10;;;;;;1540390;76;2155;-61
2023/02/26 03:23:43;;;;;;;;;;;22.00;58.20;;;;;;1548527;75;644;-61
2023/02/26 03:25:46;;;;;;;;;;;21.80;58.20;;;;;;1531853;77;1594;-61
2023/02/26 03:27:59;;;;;;;;;;;21.80;58.60;;;;;;1526756;77;686;-60
2023/02/26 03:30:02;;;;;;;;;;;21.80;58.70;;;;;;1547604;76;716;-61
2023/02/26 03:32:08;;;;;;;;;;;21.80;58.70;;;;;;1534907;76;1149;-61
2023/02/26 03:34:15;;;;;;;;;;;21.80;58.90;;;;;;1534383;77;752;-60
2023/02/26 03:36:18;;;;;;;;;;;21.70;58.80;;;;;;1553185;76;769;-61
2023/02/26 03:38:28;;;;;;;;;;;21.70;58.90;;;;;;1530940;76;1954;-61
2023/02/26 03:40:34;;;;;;;;;;;21.70;59.20;;;;;;1553195;75;1156;-60
2023/02/26 03:42:37;;;;;;;;;;;21.70;59.30;;;;;;1534014;77;1866;-61
2023/02/26 03:44:41;;;;;;;;;;;21.70;59.20;;;;;;1536159;77;1614;-60
2023/02/26 03:46:44;;;;;;;;;;;21.80;59.00;;;;;;1530590;77;751;-60
2023/02/26 03:48:46;;;;;;;;;;;21.80;59.00;;;;;;1549651;76;689;-60
2023/02/26 03:50:49;;;;;;;;;;;21.80;58.90;;;;;;1523614;76;1140;-61
2023/02/26 03:52:51;;;;;;;;;;;21.80;58.70;;;;;;1533935;76;718;-60
2023/02/26 03:55:01;;;;;;;;;;;21.80;58.70;;;;;;1502739;78;769;-60
2023/02/26 03:57:02;;;;;;;;;;;21.70;58.70;;;;;;1546757;76;1886;-60
2023/02/26 03:59:04;;;;;;;;;;;21.80;58.70;;;;;;1543025;75;1945;-60
2023/02/26 04:01:07;;;;;;;;;;;21.70;58.70;;;;;;1543530;76;1304;-60
2023/02/26 04:03:23;;;;;;;;;;;21.70;58.70;;;;;;1543103;76;690;-60
2023/02/26 04:05:26;;;;;;;;;;;21.70;58.70;;;;;;1537531;76;657;-61
2023/02/26 04:07:27;;;;;;;;;;;21.70;58.70;;;;;;1530796;76;693;-61
2023/02/26 04:09:29;;;;;;;;;;;21.80;58.90;;;;;;1545263;76;686;-60
2023/02/26 04:11:31;;;;;;;;;;;21.80;58.90;;;;;;1531033;76;1093;-61
2023/02/26 04:13:33;;;;;;;;;;;21.70;58.70;;;;;;1531802;77;1553;-61
2023/02/26 04:15:35;;;;;;;;;;;21.70;58.70;;;;;;1544443;76;677;-61
2023/02/26 04:17:37;;;;;;;;;;;21.80;58.70;;;;;;1536867;77;1949;-61
2023/02/26 04:19:39;;;;;;;;;;;21.70;58.70;;;;;;1554692;76;684;-62
2023/02/26 04:21:41;;;;;;;;;;;21.80;58.70;;;;;;1538073;75;1182;-61
2023/02/26 04:23:42;;;;;;;;;;;21.80;58.60;;;;;;1548339;75;760;-61
2023/02/26 04:25:45;;;;;;;;;;;21.70;58.20;;;;;;1521010;76;718;-60
2023/02/26 04:27:47;;;;;;;;;;;21.80;58.60;;;;;;1520021;77;1397;-61
2023/02/26 04:29:48;;;;;;;;;;;21.70;58.60;;;;;;1549370;76;668;-62
2023/02/26 04:31:50;;;;;;;;;;;21.70;58.50;;;;;;1546346;74;1143;-62
2023/02/26 04:33:52;;;;;;;;;;;21.70;58.60;;;;;;1521703;77;708;-61
2023/02/26 04:35:54;;;;;;;;;;;21.70;58.60;;;;;;1530670;77;746;-62
2023/02/26 04:37:56;;;;;;;;;;;21.70;58.70;;;;;;1511757;77;1937;-61
2023/02/26 04:39:58;;;;;;;;;;;21.80;58.70;;;;;;1511246;78;678;-62
2023/02/26 04:42:00;;;;;;;;;;;21.80;58.20;;;;;;1512073;77;1575;-62
2023/02/26 04:44:02;;;;;;;;;;;21.80;58.10;;;;;;1511565;78;731;-61
2023/02/26 04:46:04;;;;;;;;;;;21.80;58.10;;;;;;1535085;77;748;-62
2023/02/26 04:48:06;;;;;;;;;;;21.80;58.00;;;;;;1533733;77;710;-60
2023/02/26 04:50:09;;;;;;;;;;;21.80;58.00;;;;;;1533147;77;672;-61
2023/02/26 04:52:11;;;;;;;;;;;21.80;57.80;;;;;;1555415;74;1141;-61
2023/02/26 04:54:12;;;;;;;;;;;21.80;57.80;;;;;;1535608;77;784;-61
2023/02/26 04:56:15;;;;;;;;;;;21.80;57.90;;;;;;1528076;77;1583;-61
2023/02/26 04:58:17;;;;;;;;;;;21.80;57.90;;;;;;1532903;77;1928;-60
2023/02/26 05:00:19;;;;;;;;;;;21.80;57.90;;;;;;1554172;76;747;-61
2023/02/26 05:02:21;;;;;;;;;;;21.80;58.10;;;;;;1542988;76;1199;-60
2023/02/26 05:04:22;;;;;;;;;;;21.80;58.60;;;;;;1530620;77;749;-62
2023/02/26 05:06:24;;;;;;;;;;;21.80;58.20;;;;;;1531075;76;722;-62
2023/02/26 05:08:26;;;;;;;;;;;21.80;58.10;;;;;;1529193;77;768;-60
2023/02/26 05:10:28;;;;;;;;;;;21.80;58.10;;;;;;1547017;75;1862;-61
2023/02/26 05:12:30;;;;;;;;;;;21.80;58.10;;;;;;1524212;77;694;-61
2023/02/26 05:14:32;;;;;;;;;;;21.80;58.10;;;;;;1517783;77;736;-62
2023/02/26 05:16:34;;;;;;;;;;;21.80;58.10;;;;;;1547916;76;708;-62
2023/02/26 05:18:36;;;;;;;;;;;21.80;58.10;;;;;;1546314;76;1949;-61
2023/02/26 05:20:37;;;;;;;;;;;21.80;58.10;;;;;;1539985;76;1170;-61
2023/02/26 05:22:39;;;;;;;;;;;21.80;58.00;;;;;;1552695;76;1358;-61
2023/02/26 05:24:41;;;;;;;;;;;21.90;58.10;;;;;;1543528;76;674;-62
2023/02/26 05:26:45;;;;;;;;;;;21.90;58.10;;;;;;1525493;77;680;-61
2023/02/26 05:28:48;;;;;;;;;;;21.80;57.80;;;;;;1533072;77;745;-61
2023/02/26 05:30:49;;;;;;;;;;;21.90;58.10;;;;;;1532269;77;1170;-60
2023/02/26 05:32:51;;;;;;;;;;;21.80;58.00;;;;;;1563272;76;712;-60
2023/02/26 05:34:53;;;;;;;;;;;21.90;58.10;;;;;;1542975;76;682;-61
2023/02/26 05:36:55;;;;;;;;;;;21.90;58.10;;;;;;1551636;76;1526;-62
2023/02/26 05:38:57;;;;;;;;;;;21.80;57.90;;;;;;1549472;76;1946;-61
2023/02/26 05:40:59;;;;;;;;;;;21.90;58.00;;;;;;1549999;75;1100;-61
2023/02/26 05:43:01;;;;;;;;;;;21.90;58.20;;;;;;1522397;77;714;-61
2023/02/26 05:45:04;;;;;;;;;;;21.90;58.00;;;;;;1510111;78;788;-60
2023/02/26 05:47:06;;;;;;;;;;;21.80;57.90;;;;;;1510086;78;704;-61
2023/02/26 05:49:08;;;;;;;;;;;21.90;58.00;;;;;;1536960;76;713;-61
2023/02/26 05:51:10;;;;;;;;;;;21.90;57.90;;;;;;1532459;76;1523;-61
2023/02/26 05:53:12;;;;;;;;;;;21.90;57.80;;;;;;1536789;77;667;-61
2023/02/26 05:55:14;;;;;;;;;;;22.00;57.80;;;;;;1549831;76;686;-61
2023/02/26 05:57:16;;;;;;;;;;;22.00;57.80;;;;;;1553196;76;719;-61
2023/02/26 05:59:18;;;;;;;;;;;21.90;57.70;;;;;;1553457;76;1925;-60
2023/02/26 06:01:20;;;;;;;;;;;22.00;57.60;;;;;;1554121;75;1270;-60
2023/02/26 06:03:21;;;;;;;;;;;22.00;57.50;;;;;;1552868;75;689;-61
2023/02/26 06:05:23;;;;;;;;;;;22.00;57.50;;;;;;1538556;76;1736;-61
2023/02/26 06:07:25;;;;;;;;;;;22.00;57.40;;;;;;1554124;76;670;-61
2023/02/26 06:09:27;;;;;;;;;;;22.00;57.30;;;;;;1554075;76;725;-62
2023/02/26 06:11:29;;;;;;;;;;;22.00;57.80;;;;;;1542649;76;1148;-61
2023/02/26 06:13:31;;;;;;;;;;;22.00;57.80;;;;;;1527889;77;687;-61
2023/02/26 06:15:33;;;;;;;;;;;22.10;57.70;;;;;;1534885;77;672;-61
2023/02/26 06:17:35;;;;;;;;;;;22.00;57.50;;;;;;1531354;77;733;-61
2023/02/26 06:19:37;;;;;;;;;;;22.00;57.50;;;;;;1557358;75;2022;-61
2023/02/26 06:21:39;;;;;;;;;;;22.00;57.40;;;;;;1522440;76;1177;-61
2023/02/26 06:23:40;;;;;;;;;;;22.00;57.30;;;;;;1545393;76;670;-62
2023/02/26 06:25:42;;;;;;;;;;;22.00;57.30;;;;;;1535604;77;767;-61
2023/02/26 06:27:44;;;;;;;;;;;22.00;57.30;;;;;;1536985;77;752;-61
2023/02/26 06:29:46;;;;;;;;;;;22.00;57.30;;;;;;1554951;76;697;-61
2023/02/26 06:31:48;;;;;;;;;;;22.00;57.30;;;;;;1542028;75;1133;-62
2023/02/26 06:33:50;;;;;;;;;;;22.00;57.60;;;;;;1530653;76;1629;-61
2023/02/26 06:35:52;;;;;;;;;;;22.10;57.90;;;;;;1521378;77;678;-61
2023/02/26 06:37:54;;;;;;;;;;;22.00;57.80;;;;;;1532977;77;682;-63
2023/02/26 06:39:55;;;;;;;;;;;22.00;57.60;;;;;;1552342;76;1937;-61
2023/02/26 06:41:57;;;;;;;;;;;22.00;57.60;;;;;;1536087;76;1121;-60
2023/02/26 06:43:59;;;;;;;;;;;22.00;57.40;;;;;;1551614;76;702;-60
2023/02/26 06:46:01;;;;;;;;;;;22.00;57.60;;;;;;1533763;77;786;-61
2023/02/26 06:48:03;;;;;;;;;;;22.00;57.60;;;;;;1556847;75;1557;-61
2023/02/26 06:50:05;;;;;;;;;;;22.00;57.60;;;;;;1529649;77;684;-61
2023/02/26 06:52:07;;;;;;;;;;;22.10;57.40;;;;;;1510781;77;1162;-60
2023/02/26 06:54:09;;;;;;;;;;;22.10;57.10;;;;;;1521189;77;688;-61
2023/02/26 06:56:11;;;;;;;;;;;22.10;57.00;;;;;;1553119;76;800;-61
2023/02/26 06:58:13;;;;;;;;;;;22.10;57.00;;;;;;1545018;76;727;-60
2023/02/26 07:00:15;;;;;;;;;;;22.10;56.80;;;;;;1531028;77;1922;-61
2023/02/26 07:02:18;;;;;;;;;;;22.10;56.90;;;;;;1545063;76;1596;-59
2023/02/26 07:04:20;;;;;;;;;;;22.10;57.10;;;;;;1535549;76;662;-62
2023/02/26 07:06:21;;;;;;;;;;;22.20;56.70;;;;;;1529933;77;768;-60
2023/02/26 07:08:23;;;;;;;;;;;22.20;56.70;;;;;;1549650;76;812;-61
2023/02/26 07:10:25;;;;;;;;;;;22.20;56.60;;;;;;1543870;76;1141;-60
2023/02/26 07:12:27;;;;;;;;;;;22.20;56.50;;;;;;1531403;77;701;-61
2023/02/26 07:14:29;;;;;;;;;;;22.20;56.30;;;;;;1541764;76;749;-62
2023/02/26 07:16:31;;;;;;;;;;;22.20;56.30;;;;;;1519951;76;1591;-62
2023/02/26 07:18:33;;;;;;;;;;;22.20;56.20;;;;;;1554514;75;729;-62
2023/02/26 07:20:35;;;;;;;;;;;22.20;56.00;;;;;;1536448;76;1932;-62
2023/02/26 07:22:37;;;;;;;;;;;22.30;55.90;;;;;;1520323;77;694;-62
2023/02/26 07:24:39;;;;;;;;;;;22.20;55.80;;;;;;1549761;76;730;-62
2023/02/26 07:26:41;;;;;;;;;;;22.20;55.80;;;;;;1538780;76;721;-63
2023/02/26 07:28:43;;;;;;;;;;;22.20;55.70;;;;;;1525382;77;694;-61
2023/02/26 07:30:45;;;;;;;;;;;22.10;55.70;;;;;;1533651;76;1551;-64
2023/02/26 07:32:46;;;;;;;;;;;22.10;55.70;;;;;;1536120;76;676;-64
2023/02/26 07:34:48;;;;;;;;;;;22.20;55.60;;;;;;1564592;74;664;-62
2023/02/26 07:36:50;;;;;;;;;;;22.20;55.50;;;;;;1529219;77;733;-62
2023/02/26 07:38:52;;;;;;;;;;;22.10;55.50;;;;;;1554337;76;1935;-62
2023/02/26 07:40:55;;;;;;;;;;;22.10;55.50;;;;;;1541678;75;1152;-62
2023/02/26 07:42:57;;;;;;;;;;;22.10;55.40;;;;;;1530170;77;676;-63
2023/02/26 07:44:59;;;;;;;;;;;22.20;55.40;;;;;;1531137;77;1572;-63
2023/02/26 07:47:01;;;;;;;;;;;22.20;55.20;;;;;;1533089;77;739;-63
2023/02/26 07:49:02;;;;;;;;;;;22.10;55.30;;;;;;1533131;76;787;-62
2023/02/26 07:51:06;;;;;;;;;;;22.10;55.30;;;;;;1548142;75;1168;-62
2023/02/26 07:53:08;;;;;;;;;;;22.10;55.30;;;;;;1532600;76;672;-63
2023/02/26 07:55:10;;;;;;;;;;;22.20;55.40;;;;;;1550134;76;680;-63
2023/02/26 07:57:12;;;;;;;;;;;22.10;55.20;;;;;;1541025;76;797;-63
2023/02/26 07:59:14;;;;;;;;;;;22.10;55.20;;;;;;1549480;75;1946;-63
2023/02/26 08:01:16;;;;;;;;;;;22.10;55.20;;;;;;1531413;76;1425;-62
2023/02/26 08:03:18;;;;;;;;;;;22.10;55.40;;;;;;1529673;76;1097;-62
2023/02/26 08:05:20;;;;;;;;;;;22.10;55.20;;;;;;1561524;76;1570;-63
2023/02/26 08:07:22;;;;;;;;;;;22.10;55.30;;;;;;1528454;76;1384;-62
2023/02/26 08:09:24;;;;;;;;;;;22.10;55.30;;;;;;1536763;75;1516;-65
2023/02/26 08:11:26;;;;;;;;;;;22.10;55.30;;;;;;1533781;76;1502;-64
2023/02/26 08:13:28;;;;;;;;;;;22.10;55.30;;;;;;1540950;75;1123;-62
2023/02/26 08:15:30;;;;;;;;;;;22.10;55.30;;;;;;1524057;76;1420;-62
2023/02/26 08:17:32;;;;;;;;;;;22.10;55.30;;;;;;1530197;76;1178;-63
2023/02/26 08:19:34;;;;;;;;;;;22.00;55.20;;;;;;1541650;75;1923;-65
2023/02/26 08:21:36;;;;;;;;;;;22.10;55.30;;;;;;1520979;76;1185;-62
2023/02/26 08:23:39;;;;;;;;;;;22.00;55.20;;;;;;1545075;75;1060;-63
2023/02/26 08:25:40;;;;;;;;;;;22.10;55.30;;;;;;1522637;76;1326;-62
2023/02/26 08:27:42;;;;;;;;;;;22.10;55.20;;;;;;1509943;77;1120;-62
2023/02/26 08:29:45;;;;;;;;;;;22.10;55.40;;;;;;1508398;77;1533;-63
2023/02/26 08:31:47;;;;;;;;;;;22.10;55.50;;;;;;1509801;77;1541;-62
2023/02/26 08:33:49;;;;;;;;;;;22.10;55.40;;;;;;1509634;77;1297;-62
2023/02/26 08:35:50;;;;;;;;;;;22.10;55.30;;;;;;1507057;77;1304;-62
2023/02/26 08:37:53;;;;;;;;;;;22.10;55.40;;;;;;1511430;77;1116;-65
2023/02/26 08:39:55;;;;;;;;;;;22.10;55.40;;;;;;1534538;76;1931;-62
2023/02/26 08:41:57;;;;;;;;;;;22.10;55.40;;;;;;1543705;75;1547;-62
2023/02/26 08:44:00;;;;;;;;;;;22.10;55.40;;;;;;1527188;76;1190;-63
2023/02/26 08:46:01;;;;;;;;;;;22.10;55.50;;;;;;1529078;76;1058;-62
2023/02/26 08:48:03;;;;;;;;;;;22.10;55.40;;;;;;1543402;75;1508;-62
2023/02/26 08:50:06;;;;;;;;;;;22.10;55.40;;;;;;1516534;76;1347;-63
2023/02/26 08:52:07;;;;;;;;;;;22.00;55.40;;;;;;1552975;75;1525;-62
2023/02/26 08:54:09;;;;;;;;;;;22.10;55.50;;;;;;1539218;75;1279;-62
2023/02/26 08:56:11;;;;;;;;;;;22.10;55.50;;;;;;1525464;76;1294;-62
2023/02/26 08:58:13;;;;;;;;;;;22.10;55.30;;;;;;1548241;75;1532;-62
2023/02/26 09:00:17;;;;;;;;;;;22.10;55.40;;;;;;1521629;76;1948;-64
2023/02/26 09:02:19;;;;;;;;;;;22.10;55.40;;;;;;1548786;76;1558;-62
2023/02/26 09:04:21;;;;;;;;;;;22.10;55.30;;;;;;1527805;76;1560;-62
2023/02/26 09:06:22;;;;;;;;;;;22.10;55.20;;;;;;1548298;76;1068;-62
2023/02/26 09:08:24;;;;;;;;;;;22.10;55.40;;;;;;1551896;75;1521;-61
2023/02/26 09:10:26;;;;;;;;;;;22.10;55.20;;;;;;1529366;77;1094;-62
2023/02/26 09:12:28;;;;;;;;;;;22.10;55.30;;;;;;1528445;76;1244;-63
2023/02/26 09:14:30;;;;;;;;;;;22.10;55.40;;;;;;1498381;77;1501;-63
2023/02/26 09:16:35;;;;;;;;;;;22.10;55.40;;;;;;1534142;75;1216;-63
2023/02/26 09:18:36;;;;;;;;;;;22.10;55.40;;;;;;1521624;76;1664;-61
2023/02/26 09:20:37;;;;;;;;;;;22.10;55.30;;;;;;1525151;76;1957;-62
2023/02/26 09:22:39;;;;;;;;;;;22.10;55.30;;;;;;1536307;75;1589;-63
2023/02/26 09:24:41;;;;;;;;;;;22.10;55.20;;;;;;1543194;75;1118;-63
2023/02/26 09:26:43;;;;;;;;;;;22.10;55.30;;;;;;1544418;75;1140;-62
2023/02/26 09:28:45;;;;;;;;;;;22.10;55.30;;;;;;1544118;75;1036;-63
2023/02/26 09:30:47;;;;;;;;;;;22.10;55.30;;;;;;1546699;75;1170;-62
2023/02/26 09:32:49;;;;;;;;;;;22.10;55.40;;;;;;1541794;76;1050;-62
2023/02/26 09:34:50;;;;;;;;;;;22.10;55.30;;;;;;1549513;76;1049;-63
2023/02/26 09:36:52;;;;;;;;;;;22.10;55.20;;;;;;1544128;75;1483;-62
2023/02/26 09:38:54;;;;;;;;;;;22.10;55.20;;;;;;1546165;75;1046;-63
2023/02/26 09:40:57;;;;;;;;;;;22.10;55.20;;;;;;1551067;76;1935;-63
2023/02/26 09:43:07;;;;;;;;;;;22.10;55.20;;;;;;1546337;75;1083;-63
2023/02/26 09:45:16;;;;;;;;;;;22.10;55.20;;;;;;1552524;75;1943;-63
2023/02/26 09:47:20;;;;;;;;;;;22.10;55.30;;;;;;1540810;75;1892;-63
2023/02/26 09:49:29;;;;;;;;;;;22.10;55.20;;;;;;1522421;76;1102;-64
2023/02/26 09:51:31;;;;;;;;;;;22.10;55.30;;;;;;1550474;76;1537;-63
2023/02/26 09:53:37;;;;;;;;;;;22.10;55.30;;;;;;1515887;76;1216;-63
2023/02/26 09:55:42;;;;;;;;;;;22.10;55.20;;;;;;1543899;75;1677;-63
2023/02/26 09:57:44;;;;;;;;;;;22.10;55.30;;;;;;1516227;76;1769;-63
2023/02/26 09:59:46;;;;;;;;;;;22.10;55.30;;;;;;1527426;76;1951;-63
2023/02/26 10:01:53;;;;;;;;;;;22.10;55.30;;;;;;1525142;76;1359;-64
2023/02/26 10:03:56;;;;;;;;;;;22.10;55.30;;;;;;1536310;75;2008;-62
2023/02/26 10:06:15;;;;;;;;;;;22.10;55.20;;;;;;1540365;76;1446;-63
2023/02/26 10:08:17;;;;;;;;;;;22.10;55.30;;;;;;1514077;76;1431;-62
2023/02/26 10:10:36;;;;;;;;;;;22.10;55.30;;;;;;1543050;75;1134;-61
2023/02/26 10:12:39;;;;;;;;;;;22.20;55.40;;;;;;1539873;75;1947;-63
2023/02/26 10:14:43;;;;;;;;;;;22.10;55.70;;;;;;1531069;76;1136;-63
2023/02/26 10:16:45;;;;;;;;;;;22.10;55.90;;;;;;1547272;76;1563;-63
2023/02/26 10:19:05;;;;;;;;;;;22.20;55.90;;;;;;1543342;76;1496;-62
2023/02/26 10:21:12;;;;;;;;;;;22.20;55.90;;;;;;1537771;75;1961;-62
2023/02/26 10:23:21;;;;;;;;;;;22.10;55.90;;;;;;1534424;75;1146;-62
2023/02/26 10:25:28;;;;;;;;;;;22.20;55.80;;;;;;1545652;75;1140;-63
2023/02/26 10:27:31;;;;;;;;;;;22.20;55.90;;;;;;1537250;76;1132;-60
2023/02/26 10:29:38;;;;;;;;;;;22.20;55.70;;;;;;1524775;76;1797;-60
2023/02/26 10:31:44;;;;;;;;;;;22.40;54.90;;;;;;1551274;74;1973;-61
2023/02/26 10:33:51;;;;;;;;;;;22.40;53.30;;;;;;1528006;76;1584;-60
2023/02/26 10:35:54;;;;;;;;;;;22.40;52.50;;;;;;1540364;75;1926;-60
2023/02/26 10:38:01;;;;;;;;;;;22.50;52.60;;;;;;1542876;75;1142;-60
2023/02/26 10:40:09;;;;;;;;;;;22.50;51.70;;;;;;1550326;75;1935;-62
2023/02/26 10:42:12;;;;;;;;;;;22.40;50.20;;;;;;1549542;75;1824;-60
2023/02/26 10:44:25;;;;;;;;;;;22.40;50.80;;;;;;1546074;75;1785;-61
2023/02/26 10:46:44;;;;;;;;;;;22.30;50.70;;;;;;1548259;75;1918;-60
2023/02/26 10:48:51;;;;;;;;;;;22.50;50.50;;;;;;1529151;77;669;-60
2023/02/26 10:50:53;;;;;;;;;;;22.40;49.30;;;;;;1527732;76;1794;-60
2023/02/26 10:52:55;;;;;;;;;;;22.40;47.50;;;;;;1551661;76;684;-60
2023/02/26 10:55:15;;;;;;;;;;;22.30;44.80;;;;;;1519110;78;770;-59
2023/02/26 10:57:18;;;;;;;;;;;22.10;43.60;;;;;;1533043;76;803;-60
2023/02/26 10:59:20;;;;;;;;;;;22.10;43.90;;;;;;1496038;78;1917;-63
2023/02/26 11:01:23;;;;;;;;;;;22.00;43.20;;;;;;1530913;76;1947;-61
2023/02/26 11:03:32;;;;;;;;;;;22.00;44.70;;;;;;1545692;76;761;-60
2023/02/26 11:05:34;;;;;;;;;;;22.00;45.00;;;;;;1551936;76;697;-60
2023/02/26 11:07:36;;;;;;;;;;;22.00;45.40;;;;;;1526050;77;735;-61
2023/02/26 11:09:41;;;;;;;;;;;22.00;46.10;;;;;;1536149;77;707;-61
2023/02/26 11:11:46;;;;;;;;;;;22.00;46.80;;;;;;1539616;75;1392;-61
2023/02/26 11:13:48;;;;;;;;;;;22.00;47.30;;;;;;1528548;76;682;-61
2023/02/26 11:15:50;;;;;;;;;;;22.00;47.80;;;;;;1554017;76;1548;-61
2023/02/26 11:17:57;;;;;;;;;;;22.00;48.10;;;;;;1553849;76;685;-63
2023/02/26 11:19:59;;;;;;;;;;;22.10;48.60;;;;;;1547249;76;667;-62
2023/02/26 11:22:02;;;;;;;;;;;22.10;48.90;;;;;;1535659;77;1903;-62
2023/02/26 11:24:06;;;;;;;;;;;22.20;49.10;;;;;;1527294;77;682;-62
2023/02/26 11:26:09;;;;;;;;;;;22.10;49.30;;;;;;1541179;76;679;-61
2023/02/26 11:28:21;;;;;;;;;;;22.20;49.50;;;;;;1513438;76;1629;-63
2023/02/26 11:30:27;;;;;;;;;;;22.30;49.80;;;;;;1551163;76;664;-62
2023/02/26 11:32:32;;;;;;;;;;;22.20;49.80;;;;;;1531012;77;674;-61
2023/02/26 11:34:35;;;;;;;;;;;22.20;49.90;;;;;;1527859;77;783;-61
2023/02/26 11:36:38;;;;;;;;;;;22.30;50.20;;;;;;1553264;76;711;-62
2023/02/26 11:38:40;;;;;;;;;;;22.20;50.20;;;;;;1555197;76;684;-60
2023/02/26 11:40:42;;;;;;;;;;;22.20;50.30;;;;;;1536490;76;1939;-60
2023/02/26 11:42:54;;;;;;;;;;;22.30;50.50;;;;;;1526695;76;1526;-62
2023/02/26 11:44:56;;;;;;;;;;;22.30;50.70;;;;;;1531235;76;690;-61
2023/02/26 11:46:58;;;;;;;;;;;22.20;50.60;;;;;;1521424;77;787;-62
2023/02/26 11:49:00;;;;;;;;;;;22.20;50.70;;;;;;1543121;76;730;-61
2023/02/26 11:51:03;;;;;;;;;;;22.20;50.80;;;;;;1545092;75;1176;-61
2023/02/26 11:53:07;;;;;;;;;;;22.30;51.00;;;;;;1554017;76;670;-61
2023/02/26 11:55:21;;;;;;;;;;;22.30;51.00;;;;;;1549677;76;667;-61
2023/02/26 11:57:24;;;;;;;;;;;22.30;51.10;;;;;;1531709;76;1313;-61
2023/02/26 11:59:26;;;;;;;;;;;22.30;51.20;;;;;;1551073;76;809;-61
2023/02/26 12:01:28;;;;;;;;;;;22.30;51.20;;;;;;1544439;75;1927;-60
2023/02/26 12:03:33;;;;;;;;;;;22.40;51.20;;;;;;1538515;76;739;-61
2023/02/26 12:05:35;;;;;;;;;;;22.40;51.30;;;;;;1539873;76;654;-61
2023/02/26 12:07:37;;;;;;;;;;;22.40;51.20;;;;;;1539264;76;700;-62
2023/02/26 12:09:39;;;;;;;;;;;22.40;51.30;;;;;;1530275;76;815;-61
2023/02/26 12:12:01;;;;;;;;;;;22.40;51.30;;;;;;1528163;75;1556;-62
2023/02/26 12:14:11;;;;;;;;;;;22.40;51.30;;;;;;1546695;75;2026;-62
2023/02/26 12:16:23;;;;;;;;;;;22.40;51.30;;;;;;1550716;76;755;-62